Time;durP1;ratioP1;P1;durP2;ratioP2;P2;SDS_P1;SDS_P2;PMS_P1;PMS_P2;Temp;Humidity;BMP_temperature;BMP_pressure;BME280_temperature;BME280_humidity;BME280_pressure;Samples;Min_cycle;Max_cycle;Signal;HPM_P1;HPM_P2
2023/03/21 00:00:00;;;;;;;62.53;6.77;;;10.50;1.00;;;;;;5053434;28;20514;-70
2023/03/21 00:02:28;;;;;;;63.27;6.90;;;10.40;1.00;;;;;;5053651;28;20452;-70
2023/03/21 00:04:55;;;;;;;65.20;6.83;;;10.40;1.00;;;;;;5053372;28;20820;-70
2023/03/21 00:07:21;;;;;;;63.17;7.40;;;10.50;1.00;;;;;;5053835;28;20464;-70
2023/03/21 00:09:48;;;;;;;62.67;6.80;;;10.50;1.00;;;;;;5053428;28;20440;-70
2023/03/21 00:12:15;;;;;;;63.00;7.07;;;10.50;1.00;;;;;;5053695;28;20444;-70
2023/03/21 00:14:43;;;;;;;64.57;7.10;;;10.50;1.00;;;;;;5053587;28;20464;-70
2023/03/21 00:17:10;;;;;;;62.97;7.50;;;10.30;1.00;;;;;;5053487;28;20499;-70
2023/03/21 00:19:40;;;;;;;62.90;7.40;;;10.30;1.00;;;;;;5052983;28;20480;-70
2023/03/21 00:22:07;;;;;;;62.23;6.70;;;10.30;1.00;;;;;;5053295;28;20463;-70
2023/03/21 00:24:34;;;;;;;63.23;7.43;;;10.20;1.00;;;;;;5053425;28;20452;-70
2023/03/21 00:27:00;;;;;;;61.70;6.80;;;10.10;1.00;;;;;;5053165;28;20475;-70
2023/03/21 00:29:27;;;;;;;61.77;6.43;;;10.00;1.00;;;;;;5052888;28;20444;-70
2023/03/21 00:31:54;;;;;;;62.50;8.00;;;9.90;1.00;;;;;;5053144;28;20448;-70
2023/03/21 00:34:21;;;;;;;63.20;7.47;;;9.80;1.00;;;;;;5053023;28;21020;-70
2023/03/21 00:36:49;;;;;;;62.93;6.33;;;9.90;1.00;;;;;;5052957;28;20468;-70
2023/03/21 00:39:16;;;;;;;65.63;6.80;;;9.80;1.00;;;;;;5052721;28;20554;-69
2023/03/21 00:41:43;;;;;;;63.33;8.20;;;9.80;1.00;;;;;;5053071;28;20456;-70
2023/03/21 00:44:12;;;;;;;64.23;7.73;;;9.90;1.00;;;;;;5052271;28;20444;-70
2023/03/21 00:46:39;;;;;;;62.90;7.10;;;9.90;1.00;;;;;;5052501;28;20480;-70
2023/03/21 00:49:05;;;;;;;62.77;6.73;;;9.90;1.00;;;;;;5052450;28;20940;-70
2023/03/21 00:51:32;;;;;;;61.30;6.90;;;9.90;1.00;;;;;;5053069;28;20798;-70
2023/03/21 00:54:00;;;;;;;63.40;7.40;;;9.80;1.00;;;;;;5052686;28;20949;-70
2023/03/21 00:56:27;;;;;;;63.20;8.00;;;9.80;1.00;;;;;;5052679;28;20464;-70
2023/03/21 00:58:54;;;;;;;67.70;7.57;;;9.80;1.00;;;;;;5052323;28;20542;-70
2023/03/21 01:01:21;;;;;;;63.97;7.10;;;9.90;1.00;;;;;;5052450;28;20492;-70
2023/03/21 01:03:49;;;;;;;67.27;7.53;;;10.00;1.00;;;;;;5052819;28;20541;-70
2023/03/21 01:06:19;;;;;;;64.20;7.37;;;10.10;1.00;;;;;;5052550;28;20452;-70
2023/03/21 01:08:48;;;;;;;63.07;6.90;;;10.10;1.00;;;;;;5052045;28;20952;-70
2023/03/21 01:11:19;;;;;;;62.70;7.03;;;10.10;1.00;;;;;;5052406;28;20453;-70
2023/03/21 01:13:46;;;;;;;63.70;6.93;;;10.10;1.00;;;;;;5052317;28;20514;-70
2023/03/21 01:16:13;;;;;;;66.27;7.43;;;10.10;1.00;;;;;;5052450;28;20462;-70
2023/03/21 01:18:41;;;;;;;61.67;6.70;;;;;;;;;;5052159;28;20458;-69
2023/03/21 01:21:09;;;;;;;62.33;7.70;;;;;;;;;;5052192;28;20488;-70
2023/03/21 01:23:36;;;;;;;63.20;7.60;;;9.90;1.00;;;;;;5052259;28;20452;-70
2023/03/21 01:26:03;;;;;;;62.60;6.47;;;9.90;1.00;;;;;;5052105;28;20455;-70
2023/03/21 01:28:31;;;;;;;62.77;7.30;;;9.90;1.00;;;;;;5051848;28;20452;-70
2023/03/21 01:31:01;;;;;;;62.80;8.00;;;;;;;;;;5051986;28;20527;-70
2023/03/21 01:33:27;;;;;;;62.47;7.10;;;9.80;1.00;;;;;;5052368;28;20466;-70
2023/03/21 01:35:55;;;;;;;61.47;6.93;;;9.80;1.00;;;;;;5051817;28;20478;-69
2023/03/21 01:38:22;;;;;;;62.40;6.90;;;;;;;;;;5051759;28;20999;-70
2023/03/21 01:40:50;;;;;;;63.13;7.90;;;;;;;;;;5051561;28;20519;-70
2023/03/21 01:43:21;;;;;;;66.70;7.67;;;;;;;;;;5051831;28;20971;-70
2023/03/21 01:46:36;;;;;;;65.93;6.93;;;9.60;1.00;;;;;;5051813;28;20460;-69
2023/03/21 01:49:04;;;;;;;69.00;7.33;;;;;;;;;;5051449;28;20502;-70
2023/03/21 01:51:35;;;;;;;62.17;7.43;;;;;;;;;;5051709;28;20444;-69
2023/03/21 01:54:03;;;;;;;63.90;7.70;;;;;;;;;;5051961;28;20448;-70
2023/03/21 01:56:31;;;;;;;64.10;7.77;;;;;;;;;;5050989;28;20472;-69
2023/03/21 01:59:02;;;;;;;65.17;7.87;;;;;;;;;;5051486;28;20494;-70
2023/03/21 02:01:33;;;;;;;66.10;6.80;;;;;;;;;;5051576;28;20476;-70
2023/03/21 02:04:02;;;;;;;62.27;7.10;;;;;;;;;;5051629;28;20456;-70
2023/03/21 02:06:35;;;;;;;62.57;7.17;;;;;;;;;;5051571;28;20471;-70
2023/03/21 02:09:07;;;;;;;61.80;7.10;;;;;;;;;;5051455;28;20535;-70
2023/03/21 02:11:34;;;;;;;64.70;8.03;;;;;;;;;;5051686;28;20448;-70
2023/03/21 02:14:01;;;;;;;67.43;7.67;;;;;;;;;;5051485;28;20455;-70
2023/03/21 02:16:41;;;;;;;63.60;8.10;;;;;;;;;;5051411;28;20467;-70
2023/03/21 02:19:18;;;;;;;62.53;7.20;;;;;;;;;;5051408;28;20452;-70
2023/03/21 02:22:19;;;;;;;62.57;7.80;;;;;;;;;;5051595;28;20479;-70
2023/03/21 02:25:01;;;;;;;63.03;7.20;;;;;;;;;;4951255;29;20569;-70
2023/03/21 02:27:29;;;;;;;63.27;8.17;;;;;;;;;;4951203;29;20488;-70
2023/03/21 02:30:23;;;;;;;62.23;7.47;;;;;;;;;;4950783;28;20456;-70
2023/03/21 02:33:00;;;;;;;64.23;7.40;;;;;;;;;;4951197;29;20830;-70
2023/03/21 02:35:32;;;;;;;63.97;7.00;;;;;;;;;;4951161;29;20452;-70
2023/03/21 02:38:04;;;;;;;62.30;7.83;;;;;;;;;;4951023;29;20564;-70
2023/03/21 02:40:33;;;;;;;61.90;7.33;;;;;;;;;;4950877;28;20485;-70
2023/03/21 02:43:04;;;;;;;63.27;7.53;;;;;;;;;;4951074;29;20457;-70
2023/03/21 02:45:33;;;;;;;63.97;8.40;;;;;;;;;;4950919;28;20461;-70
2023/03/21 02:48:03;;;;;;;66.93;8.10;;;;;;;;;;4951031;28;20477;-70
2023/03/21 02:50:33;;;;;;;62.57;8.20;;;;;;;;;;4949672;28;20547;-70
2023/03/21 02:53:03;;;;;;;63.00;7.90;;;;;;;;;;4950999;29;20449;-70
2023/03/21 02:55:32;;;;;;;62.97;8.10;;;;;;;;;;4992140;28;20456;-70
2023/03/21 02:57:59;;;;;;;62.60;7.87;;;;;;;;;;5051117;28;20474;-69
2023/03/21 03:00:28;;;;;;;67.13;8.13;;;;;;;;;;5050767;28;20996;-70
2023/03/21 03:02:55;;;;;;;63.50;9.10;;;;;;;;;;5051141;28;20450;-70
2023/03/21 03:05:25;;;;;;;62.57;7.60;;;;;;;;;;5051032;28;20970;-70
2023/03/21 03:07:58;;;;;;;61.77;7.43;;;;;;;;;;5052505;28;20472;-70
2023/03/21 03:10:32;;;;;;;64.27;7.73;;;;;;;;;;5054620;28;20448;-70
2023/03/21 03:13:04;;;;;;;63.83;7.80;;;;;;;;;;5054758;28;20454;-70
2023/03/21 03:15:37;;;;;;;66.40;7.70;;;;;;;;;;5055228;28;20448;-70
2023/03/21 03:18:11;;;;;;;63.23;7.87;;;;;;;;;;5054397;28;20471;-70
2023/03/21 03:20:45;;;;;;;62.00;8.30;;;;;;;;;;5054386;28;20484;-70
2023/03/21 03:23:16;;;;;;;63.50;7.60;;;;;;;;;;5054652;28;20459;-70
2023/03/21 03:25:49;;;;;;;62.07;7.93;;;;;;;;;;5054635;28;20819;-70
2023/03/21 03:28:18;;;;;;;66.20;8.00;;;;;;;;;;5054122;28;20518;-70
2023/03/21 03:30:46;;;;;;;63.20;8.63;;;;;;;;;;5054047;28;20458;-70
2023/03/21 03:33:15;;;;;;;62.80;7.33;;;;;;;;;;5054243;28;20460;-70
2023/03/21 03:35:43;;;;;;;62.67;8.03;;;;;;;;;;5054249;28;20610;-70
2023/03/21 03:38:11;;;;;;;63.50;7.93;;;;;;;;;;5053811;28;20521;-70
2023/03/21 03:40:41;;;;;;;67.77;8.87;;;;;;;;;;5053787;28;20481;-70
2023/03/21 03:43:11;;;;;;;62.43;7.87;;;;;;;;;;5054268;28;20937;-70
2023/03/21 03:45:42;;;;;;;62.83;7.90;;;;;;;;;;5053851;28;20968;-70
2023/03/21 03:48:14;;;;;;;60.23;6.60;;;;;;;;;;5053940;28;20480;-70
2023/03/21 03:50:42;;;;;;;65.60;8.33;;;;;;;;;;5053891;28;20448;-70
2023/03/21 03:53:16;;;;;;;63.00;6.77;;;;;;;;;;5053880;28;20453;-70
2023/03/21 03:55:44;;;;;;;63.10;7.33;;;;;;;;;;5054119;28;20941;-70
2023/03/21 03:58:12;;;;;;;63.80;8.37;;;;;;;;;;5053400;28;20839;-70
2023/03/21 04:00:40;;;;;;;61.10;7.67;;;;;;;;;;5053594;28;20486;-70
2023/03/21 04:03:08;;;;;;;61.40;7.47;;;;;;;;;;5053705;28;20953;-70
2023/03/21 04:05:35;;;;;;;64.33;8.40;;;;;;;;;;5053724;28;20451;-70
2023/03/21 04:08:03;;;;;;;62.37;8.00;;;;;;;;;;5053438;28;20481;-70
2023/03/21 04:10:30;;;;;;;65.47;7.90;;;;;;;;;;5053516;28;20448;-70
2023/03/21 04:12:57;;;;;;;63.10;8.30;;;;;;;;;;5053516;28;21074;-70
2023/03/21 04:15:25;;;;;;;63.57;7.27;;;;;;;;;;5053682;28;20448;-70
2023/03/21 04:17:52;;;;;;;63.93;7.70;;;;;;;;;;5053307;28;21008;-70
2023/03/21 04:20:19;;;;;;;62.60;8.10;;;;;;;;;;5052032;28;20444;-70
2023/03/21 04:22:47;;;;;;;63.43;8.23;;;;;;;;;;5053352;28;20535;-70
2023/03/21 04:25:15;;;;;;;61.77;7.10;;;;;;;;;;5053621;28;20488;-70
2023/03/21 04:27:42;;;;;;;62.40;6.90;;;;;;;;;;5053121;28;20464;-70
2023/03/21 04:30:11;;;;;;;62.50;7.20;;;;;;;;;;5052935;28;20456;-70
2023/03/21 04:32:41;;;;;;;62.43;6.87;;;;;;;;;;5053204;28;20952;-70
2023/03/21 04:35:10;;;;;;;62.37;7.77;;;;;;;;;;5053115;28;20892;-69
2023/03/21 04:37:38;;;;;;;61.77;7.20;;;;;;;;;;5053235;28;20472;-70
2023/03/21 04:40:06;;;;;;;62.40;7.73;;;;;;;;;;5052839;28;20463;-69
2023/03/21 04:42:34;;;;;;;60.87;7.20;;;;;;;;;;5052948;28;20492;-69
2023/03/21 04:45:01;;;;;;;61.83;7.43;;;;;;;;;;5052849;28;20801;-69
2023/03/21 04:47:28;;;;;;;65.57;7.33;;;;;;;;;;5052869;28;20468;-69
2023/03/21 04:49:57;;;;;;;60.70;6.87;;;;;;;;;;5052497;28;20458;-69
2023/03/21 04:52:24;;;;;;;61.13;7.00;;;;;;;;;;5052958;28;20455;-69
2023/03/21 04:54:51;;;;;;;63.13;7.07;;;;;;;;;;5052897;28;20478;-69
2023/03/21 04:57:18;;;;;;;61.90;7.13;;;;;;;;;;5052685;28;20468;-69
2023/03/21 04:59:45;;;;;;;62.07;7.33;;;;;;;;;;5052286;28;20450;-69
2023/03/21 05:02:13;;;;;;;62.33;7.70;;;;;;;;;;5052480;28;20476;-69
2023/03/21 05:04:40;;;;;;;62.03;7.57;;;;;;;;;;5052945;28;20455;-69
2023/03/21 05:07:09;;;;;;;61.90;7.60;;;;;;;;;;5052596;28;20504;-69
2023/03/21 05:09:36;;;;;;;64.03;7.70;;;;;;;;;;5052276;28;20486;-69
2023/03/21 05:12:03;;;;;;;63.60;8.50;;;;;;;;;;5052259;28;20449;-70
2023/03/21 05:14:30;;;;;;;62.90;7.83;;;;;;;;;;5052320;28;20445;-69
2023/03/21 05:17:00;;;;;;;63.37;7.43;;;;;;;;;;5052541;28;20484;-69
2023/03/21 05:19:33;;;;;;;63.77;8.10;;;;;;;;;;5051967;28;20538;-69
2023/03/21 05:22:03;;;;;;;69.33;8.50;;;;;;;;;;5052295;28;20519;-70
2023/03/21 05:24:32;;;;;;;62.60;7.77;;;;;;;;;;5052199;28;20492;-69
2023/03/21 05:27:01;;;;;;;64.90;8.10;;;;;;;;;;5051935;28;20464;-69
2023/03/21 05:29:29;;;;;;;67.77;8.20;;;;;;;;;;5051806;28;20452;-69
2023/03/21 05:31:56;;;;;;;66.80;8.50;;;;;;;;;;5051932;28;20941;-69
2023/03/21 05:34:23;;;;;;;63.80;7.67;;;;;;;;;;5052170;28;20458;-69
2023/03/21 05:36:50;;;;;;;66.00;7.90;;;;;;;;;;5052077;28;20480;-69
2023/03/21 05:39:17;;;;;;;64.23;7.40;;;;;;;;;;5051684;28;20456;-69
2023/03/21 05:41:46;;;;;;;64.07;8.03;;;;;;;;;;5051993;28;20495;-69
2023/03/21 05:44:13;;;;;;;65.63;8.43;;;;;;;;;;5051800;28;20456;-70
2023/03/21 05:46:42;;;;;;;63.70;8.73;;;;;;;;;;5051700;28;20499;-70
2023/03/21 05:49:09;;;;;;;64.23;7.43;;;;;;;;;;5051559;28;20514;-70
2023/03/21 05:51:37;;;;;;;65.67;8.10;;;;;;;;;;5051902;28;20448;-70
2023/03/21 05:54:04;;;;;;;62.83;7.50;;;;;;;;;;5051628;28;20456;-70
2023/03/21 05:56:31;;;;;;;63.07;8.90;;;;;;;;;;5051872;28;20464;-70
2023/03/21 05:59:00;;;;;;;65.80;7.40;;;;;;;;;;5051668;28;20471;-70
2023/03/21 06:01:27;;;;;;;61.77;7.53;;;;;;;;;;5051560;28;20491;-70
2023/03/21 06:03:55;;;;;;;62.30;7.43;;;;;;;;;;5052708;28;20443;-70
2023/03/21 06:06:22;;;;;;;63.90;7.50;;;;;;;;;;5051565;28;20972;-70
2023/03/21 06:08:49;;;;;;;63.60;7.57;;;;;;;;;;5051173;28;20454;-70
2023/03/21 06:11:21;;;;;;;61.80;7.30;;;;;;;;;;5051891;28;20819;-70
2023/03/21 06:13:47;;;;;;;65.40;8.20;;;9.20;1.00;;;;;;5051527;28;20953;-70
2023/03/21 06:16:16;;;;;;;63.90;7.60;;;;;;;;;;5051541;28;20455;-70
2023/03/21 06:18:43;;;;;;;64.73;7.70;;;;;;;;;;5051162;28;20957;-70
2023/03/21 06:21:10;;;;;;;63.40;6.90;;;;;;;;;;5051800;28;20444;-70
2023/03/21 06:23:38;;;;;;;63.70;7.83;;;;;;;;;;5051356;28;20945;-70
2023/03/21 06:26:05;;;;;;;63.67;7.73;;;;;;;;;;5051466;28;20535;-70
2023/03/21 06:28:32;;;;;;;67.80;8.47;;;;;;;;;;5051092;28;20448;-70
2023/03/21 06:30:59;;;;;;;62.30;6.80;;;;;;;;;;5051378;28;20444;-70
2023/03/21 06:33:28;;;;;;;62.83;7.83;;;;;;;;;;5051305;28;20496;-70
2023/03/21 06:35:56;;;;;;;62.90;7.80;;;;;;;;;;5051281;28;20448;-70
2023/03/21 06:38:23;;;;;;;64.47;7.07;;;;;;;;;;5051285;28;20464;-70
2023/03/21 06:40:51;;;;;;;66.10;8.03;;;;;;;;;;5051227;28;20831;-70
2023/03/21 06:43:18;;;;;;;66.30;8.37;;;;;;;;;;5053521;28;20490;-70
2023/03/21 06:45:45;;;;;;;62.47;7.77;;;;;;;;;;5055193;28;20539;-70
2023/03/21 06:48:12;;;;;;;65.60;8.50;;;;;;;;;;5054829;28;20976;-70
2023/03/21 06:50:41;;;;;;;63.80;7.30;;;;;;;;;;5054964;28;20471;-70
2023/03/21 06:53:08;;;;;;;62.57;7.80;;;;;;;;;;5055181;28;20924;-70
2023/03/21 06:55:35;;;;;;;61.97;7.23;;;;;;;;;;5055121;28;20448;-70
2023/03/21 06:58:02;;;;;;;63.57;7.60;;;;;;;;;;5054803;28;20840;-70
2023/03/21 07:00:29;;;;;;;61.20;6.47;;;10.10;1.00;;;;;;5054667;28;20456;-70
2023/03/21 07:02:56;;;;;;;66.07;7.33;;;;;;;;;;5054693;28;20495;-70
2023/03/21 07:05:23;;;;;;;65.33;7.90;;;;;;;;;;5055013;28;20452;-70
2023/03/21 07:07:52;;;;;;;62.43;7.67;;;;;;;;;;5054695;28;20470;-70
2023/03/21 07:10:19;;;;;;;62.37;6.87;;;;;;;;;;5054431;28;20466;-70
2023/03/21 07:12:46;;;;;;;60.97;6.70;;;10.20;1.00;;;;;;5054627;28;20450;-70
2023/03/21 07:15:12;;;;;;;65.70;6.97;;;10.50;1.00;;;;;;5054612;28;20452;-70
2023/03/21 07:17:39;;;;;;;62.67;7.00;;;10.50;1.00;;;;;;5054406;28;20507;-70
2023/03/21 07:20:07;;;;;;;62.30;7.40;;;10.60;1.00;;;;;;5054387;28;20475;-70
2023/03/21 07:22:35;;;;;;;63.90;7.40;;;;;;;;;;5054419;28;20490;-70
2023/03/21 07:25:04;;;;;;;64.77;7.40;;;;;;;;;;5054484;28;20481;-70
2023/03/21 07:27:31;;;;;;;60.70;6.10;;;;;;;;;;5054294;28;20468;-70
2023/03/21 07:29:58;;;;;;;61.50;7.13;;;;;;;;;;5053861;28;21114;-70
2023/03/21 07:32:28;;;;;;;61.53;6.40;;;;;;;;;;5054597;28;20448;-70
2023/03/21 07:34:55;;;;;;;66.87;7.37;;;11.00;1.00;;;;;;5054216;28;20463;-70
2023/03/21 07:37:22;;;;;;;63.63;7.30;;;;;;;;;;5054212;28;20992;-70
2023/03/21 07:39:50;;;;;;;64.30;6.80;;;;;;;;;;5053904;28;20452;-70
2023/03/21 07:42:19;;;;;;;60.60;6.47;;;;;;;;;;5053933;28;20959;-70
2023/03/21 07:44:46;;;;;;;65.60;5.63;;;;;;;;;;5053918;28;20547;-70
2023/03/21 07:47:13;;;;;;;71.20;6.80;;;;;;;;;;5054201;28;20468;-70
2023/03/21 07:49:40;;;;;;;62.63;6.77;;;;;;;;;;5053701;28;20960;-70
2023/03/21 07:52:08;;;;;;;61.77;6.40;;;;;;;;;;5054120;28;20455;-70
2023/03/21 07:54:35;;;;;;;64.27;6.17;;;;;;;;;;5053041;28;20475;-70
2023/03/21 07:57:03;;;;;;;60.10;5.53;;;;;;;;;;5053745;28;20464;-70
2023/03/21 07:59:31;;;;;;;59.87;5.43;;;;;;;;;;5053757;28;20448;-70
2023/03/21 08:01:58;;;;;;;60.23;5.00;;;;;;;;;;5053662;28;20491;-70
2023/03/21 08:04:26;;;;;;;60.70;6.10;;;;;;;;;;5053775;28;20451;-70
2023/03/21 08:06:54;;;;;;;61.50;5.63;;;;;;;;;;5053498;28;20480;-70
2023/03/21 08:09:21;;;;;;;60.27;6.10;;;;;;;;;;5053305;28;20552;-70
2023/03/21 08:11:48;;;;;;;60.27;5.40;;;;;;;;;;5053470;28;20709;-71
2023/03/21 08:14:15;;;;;;;63.70;5.60;;;;;;;;;;5053702;28;20448;-71
2023/03/21 08:16:43;;;;;;;60.30;6.03;;;;;;;;;;5053675;28;20481;-71
2023/03/21 08:19:11;;;;;;;60.27;5.83;;;;;;;;;;5053178;28;20454;-71
2023/03/21 08:21:38;;;;;;;61.07;5.80;;;;;;;;;;5053142;28;20483;-71
2023/03/21 08:24:05;;;;;;;61.97;6.43;;;;;;;;;;5053235;28;20547;-71
2023/03/21 08:26:33;;;;;;;61.90;6.40;;;;;;;;;;5053385;28;20976;-71
2023/03/21 08:29:00;;;;;;;61.40;5.60;;;;;;;;;;5053010;28;20471;-70
2023/03/21 08:31:27;;;;;;;60.97;5.20;;;;;;;;;;5053545;28;20828;-71
2023/03/21 08:33:56;;;;;;;64.83;5.87;;;;;;;;;;5053215;28;20444;-71
2023/03/21 08:36:23;;;;;;;62.87;5.60;;;;;;;;;;5053251;28;20470;-71
2023/03/21 08:38:55;;;;;;;63.10;6.17;;;;;;;;;;5052549;28;20459;-71
2023/03/21 08:41:23;;;;;;;62.23;5.50;;;;;;;;;;5053154;28;20463;-71
2023/03/21 08:43:50;;;;;;;59.90;4.80;;;;;;;;;;5052960;28;20480;-71
2023/03/21 08:46:17;;;;;;;60.67;5.20;;;;;;;;;;5052790;28;20876;-71
2023/03/21 08:48:44;;;;;;;60.60;5.70;;;;;;;;;;5052633;28;20448;-71
2023/03/21 08:51:13;;;;;;;64.00;5.40;;;;;;;;;;5052620;28;20475;-71
2023/03/21 08:53:41;;;;;;;59.70;5.23;;;;;;;;;;5053021;28;20444;-71
2023/03/21 08:56:08;;;;;;;60.47;5.17;;;;;;;;;;5052880;28;20506;-71
2023/03/21 08:58:35;;;;;;;62.03;4.70;;;13.60;1.00;;;;;;5052242;28;20970;-71
2023/03/21 09:01:02;;;;;;;59.87;5.20;;;13.80;1.00;;;;;;5052673;28;20840;-71
2023/03/21 09:03:29;;;;;;;59.70;5.00;;;;;;;;;;5052304;28;20568;-71
2023/03/21 09:05:57;;;;;;;62.90;5.23;;;;;;;;;;5052023;28;20809;-71
2023/03/21 09:08:26;;;;;;;61.97;5.63;;;;;;;;;;5052253;28;20504;-71
2023/03/21 09:10:53;;;;;;;61.40;5.43;;;;;;;;;;5052481;28;20882;-71
2023/03/21 09:13:21;;;;;;;59.87;4.70;;;;;;;;;;5052546;28;20445;-71
2023/03/21 09:15:48;;;;;;;59.80;4.90;;;;;;;;;;5052380;28;20456;-71
2023/03/21 09:18:16;;;;;;;59.90;4.47;;;;;;;;;;5052050;28;20474;-71
2023/03/21 09:20:45;;;;;;;59.27;4.60;;;;;;;;;;5052232;28;20808;-71
2023/03/21 09:23:13;;;;;;;60.87;4.90;;;;;;;;;;5052282;28;20488;-71
2023/03/21 09:25:42;;;;;;;58.70;4.70;;;;;;;;;;5052028;28;20454;-71
2023/03/21 09:28:09;;;;;;;59.40;4.80;;;;;;;;;;5051955;28;20562;-71
2023/03/21 09:30:37;;;;;;;61.17;4.60;;;15.90;1.00;;;;;;5052006;28;20475;-71
2023/03/21 09:33:05;;;;;;;60.07;4.50;;;;;;;;;;5051984;28;20444;-71
2023/03/21 09:35:33;;;;;;;59.27;5.07;;;;;;;;;;5052188;28;20448;-71
2023/03/21 09:38:00;;;;;;;59.70;4.63;;;;;;;;;;5052151;28;20468;-71
2023/03/21 09:40:38;;;;;;;59.63;4.37;;;;;;;;;;5051873;28;20502;-72
2023/03/21 09:43:08;;;;;;;59.37;4.40;;;;;;;;;;5051889;28;20486;-72
2023/03/21 09:45:38;;;;;;;59.90;4.83;;;;;;;;;;5051995;28;20471;-72
2023/03/21 09:48:06;;;;;;;59.30;4.27;;;;;;;;;;5051884;28;20476;-72
2023/03/21 09:50:36;;;;;;;60.97;4.60;;;17.10;99.90;;;;;;5051634;28;20452;-72
2023/03/21 09:53:09;;;;;;;59.87;4.30;;;17.40;99.90;;;;;;5051841;28;20444;-73
2023/03/21 09:55:38;;;;;;;61.80;4.20;;;;;;;;;;5051753;28;20953;-73
2023/03/21 09:58:08;;;;;;;60.20;4.20;;;;;;;;;;5051748;28;20468;-73
2023/03/21 10:00:38;;;;;;;61.00;4.20;;;;;;;;;;5051546;28;20547;-73
2023/03/21 10:03:08;;;;;;;61.07;3.80;;;;;;;;;;5051781;28;20487;-73
2023/03/21 10:05:39;;;;;;;59.07;3.93;;;21.30;99.90;;;;;;5051870;28;20481;-73
2023/03/21 10:08:08;;;;;;;60.10;4.10;;;;;;;;;;5051651;28;20483;-73
2023/03/21 10:10:40;;;;;;;58.80;4.20;;;23.30;99.90;;;;;;5051533;28;20454;-73
2023/03/21 10:13:15;;;;;;;59.20;4.10;;;23.20;99.90;;;;;;5051544;28;20945;-73
2023/03/21 10:15:42;;;;;;;62.20;3.83;;;;;;;;;;5051820;28;20454;-73
2023/03/21 10:18:15;;;;;;;58.90;4.07;;;;;;;;;;5053882;28;20835;-73
2023/03/21 10:20:42;;;;;;;58.83;3.93;;;;;;;;;;5055445;28;20831;-73
2023/03/21 10:23:13;;;;;;;58.87;3.60;;;;;;;;;;5055477;28;20488;-73
2023/03/21 10:25:41;;;;;;;59.07;4.40;;;;;;;;;;5055755;28;20451;-73
2023/03/21 10:28:13;;;;;;;59.10;4.30;;;;;;;;;;5055640;28;20812;-73
2023/03/21 10:30:42;;;;;;;60.67;4.57;;;19.00;99.90;;;;;;5055320;28;20444;-73
2023/03/21 10:33:12;;;;;;;62.07;4.20;;;;;;;;;;5055399;28;20444;-73
2023/03/21 10:35:40;;;;;;;64.23;4.57;;;;;;;;;;5055730;28;20539;-73
2023/03/21 10:38:08;;;;;;;63.20;4.00;;;;;;;;;;5055423;28;20491;-73
2023/03/21 10:40:35;;;;;;;58.97;4.40;;;;;;;;;;5055190;28;20454;-73
2023/03/21 10:43:17;;;;;;;59.00;4.43;;;;;;;;;;5055260;28;20510;-73
2023/03/21 10:45:46;;;;;;;60.37;4.00;;;;;;;;;;5055156;28;20515;-73
2023/03/21 10:48:13;;;;;;;58.70;3.77;;;22.80;99.90;;;;;;5055299;28;20891;-73
2023/03/21 10:50:40;;;;;;;58.67;4.03;;;23.50;99.90;;;;;;5054896;28;20991;-73
2023/03/21 10:53:15;;;;;;;58.10;3.60;;;23.70;99.90;;;;;;5055258;28;20522;-73
2023/03/21 10:55:43;;;;;;;58.17;3.37;;;23.80;99.90;;;;;;5055169;28;20554;-73
2023/03/21 10:58:17;;;;;;;58.00;3.80;;;24.30;99.90;;;;;;5054880;28;20847;-73
2023/03/21 11:00:46;;;;;;;58.57;3.67;;;24.50;99.90;;;;;;5055053;28;20501;-73
2023/03/21 11:03:21;;;;;;;59.30;3.70;;;24.10;99.90;;;;;;5054960;28;20827;-73
2023/03/21 11:05:48;;;;;;;58.80;3.90;;;24.30;99.90;;;;;;5055133;28;20463;-73
2023/03/21 11:08:18;;;;;;;59.67;4.30;;;24.00;99.90;;;;;;5054658;28;20464;-73
2023/03/21 11:10:53;;;;;;;57.90;3.47;;;22.80;99.90;;;;;;5054850;28;20538;-73
2023/03/21 11:13:25;;;;;;;59.80;3.97;;;;;;;;;;5054735;28;20543;-73
2023/03/21 11:15:54;;;;;;;59.50;3.80;;;;;;;;;;5054797;28;21000;-73
2023/03/21 11:18:23;;;;;;;58.90;3.83;;;23.50;99.90;;;;;;5054423;28;21051;-73
2023/03/21 11:20:51;;;;;;;58.57;3.87;;;;;;;;;;5054479;28;20463;-73
2023/03/21 11:23:18;;;;;;;59.03;4.03;;;;;;;;;;5054373;28;20490;-73
2023/03/21 11:25:48;;;;;;;59.33;3.97;;;;;;;;;;5054626;28;20452;-73
2023/03/21 11:28:18;;;;;;;59.20;4.00;;;22.90;99.90;;;;;;5054209;28;20562;-73
2023/03/21 11:30:55;;;;;;;59.03;4.10;;;23.30;99.90;;;;;;5054146;28;20444;-73
2023/03/21 11:33:23;;;;;;;58.70;3.53;;;;;;;;;;5054295;28;20812;-73
2023/03/21 11:36:03;;;;;;;58.87;4.37;;;;;;;;;;5054184;28;20456;-73
2023/03/21 11:38:31;;;;;;;59.97;4.00;;;;;;;;;;5054116;28;20466;-73
2023/03/21 11:40:59;;;;;;;59.13;4.33;;;;;;;;;;5054431;28;20957;-73
2023/03/21 11:43:28;;;;;;;59.50;3.50;;;;;;;;;;5054446;28;20491;-73
2023/03/21 11:46:00;;;;;;;58.20;3.57;;;;;;;;;;5054475;28;20452;-73
2023/03/21 11:48:29;;;;;;;58.80;3.93;;;;;;;;;;5054258;28;20456;-73
2023/03/21 11:50:59;;;;;;;60.87;4.43;;;;;;;;;;5054509;28;20448;-73
2023/03/21 11:53:39;;;;;;;59.47;4.07;;;19.50;99.90;;;;;;5054192;28;20929;-73
2023/03/21 11:56:22;;;;;;;61.40;3.70;;;19.70;99.90;;;;;;5053843;28;20499;-73
2023/03/21 11:59:12;;;;;;;59.60;4.23;;;20.20;99.90;;;;;;5053402;28;20452;-73
2023/03/21 12:01:55;;;;;;;59.37;3.97;;;20.50;99.90;;;;;;5047498;28;20472;-71
2023/03/21 12:04:38;;;;;;;58.70;3.97;;;20.80;99.90;;;;;;5052967;28;20480;-71
2023/03/21 12:07:15;;;;;;;59.57;4.20;;;20.90;99.90;;;;;;5052833;28;20471;-71
2023/03/21 12:09:46;;;;;;;59.40;4.30;;;20.90;99.90;;;;;;5053314;28;20563;-72
2023/03/21 12:12:19;;;;;;;59.60;4.30;;;;;;;;;;5053816;28;20448;-71
2023/03/21 12:14:51;;;;;;;61.03;4.20;;;;;;;;;;5053309;28;20455;-73
2023/03/21 12:17:25;;;;;;;60.83;3.80;;;;;;;;;;5053151;28;20470;-71
2023/03/21 12:19:58;;;;;;;59.87;4.07;;;;;;;;;;5053038;28;20459;-71
2023/03/21 12:22:30;;;;;;;58.80;3.60;;;;;;;;;;5053612;28;20453;-70
2023/03/21 12:24:58;;;;;;;60.63;4.03;;;;;;;;;;5053204;28;20495;-71
2023/03/21 12:27:29;;;;;;;59.60;4.60;;;;;;;;;;5052999;28;20475;-71
2023/03/21 12:30:04;;;;;;;61.10;4.40;;;;;;;;;;5052038;28;20451;-72
2023/03/21 12:32:48;;;;;;;59.70;4.20;;;20.10;99.90;;;;;;5052825;28;20458;-72
2023/03/21 12:35:38;;;;;;;62.83;4.70;;;20.00;99.90;;;;;;5053185;28;20824;-72
2023/03/21 12:38:12;;;;;;;58.90;4.97;;;;;;;;;;5052879;28;20456;-72
2023/03/21 12:40:44;;;;;;;60.37;4.70;;;;;;;;;;5052136;28;20448;-72
2023/03/21 12:43:23;;;;;;;60.07;4.40;;;;;;;;;;5053008;28;20551;-72
2023/03/21 12:45:55;;;;;;;61.80;4.63;;;19.90;99.90;;;;;;5053030;28;20460;-72
2023/03/21 12:48:33;;;;;;;61.83;4.27;;;19.90;99.90;;;;;;5052865;28;20478;-72
2023/03/21 12:51:02;;;;;;;59.10;4.80;;;;;;;;;;5052781;28;20951;-72
2023/03/21 12:53:36;;;;;;;60.37;4.67;;;;;;;;;;5052943;28;20447;-72
2023/03/21 12:56:05;;;;;;;60.47;3.97;;;;;;;;;;5052895;28;20455;-72
2023/03/21 12:58:38;;;;;;;59.40;4.70;;;;;;;;;;5052461;28;20480;-72
2023/03/21 13:01:07;;;;;;;59.73;4.77;;;;;;;;;;5052635;28;20466;-73
2023/03/21 13:03:38;;;;;;;58.90;4.40;;;;;;;;;;5052554;28;20494;-73
2023/03/21 13:06:06;;;;;;;60.13;4.10;;;20.00;99.90;;;;;;5052792;28;20451;-73
2023/03/21 13:08:37;;;;;;;59.20;4.57;;;20.00;99.90;;;;;;5052355;28;20447;-73
2023/03/21 13:11:05;;;;;;;61.07;4.70;;;;;;;;;;5052563;28;20449;-73
2023/03/21 13:13:36;;;;;;;59.83;4.77;;;20.00;99.90;;;;;;5052494;28;20444;-73
2023/03/21 13:16:09;;;;;;;60.10;5.27;;;20.10;99.90;;;;;;5052428;28;20435;-73
2023/03/21 13:18:48;;;;;;;60.77;4.50;;;20.20;99.90;;;;;;5051821;28;20455;-73
2023/03/21 13:21:20;;;;;;;61.80;4.40;;;20.60;99.90;;;;;;5052379;28;20448;-73
2023/03/21 13:24:01;;;;;;;59.67;4.40;;;20.80;99.90;;;;;;5052198;28;20571;-73
2023/03/21 13:26:38;;;;;;;59.37;4.63;;;;;;;;;;5052071;28;20521;-72
2023/03/21 13:29:22;;;;;;;60.03;4.73;;;20.70;99.90;;;;;;5051773;28;20454;-73
2023/03/21 13:31:51;;;;;;;59.33;4.80;;;20.90;99.90;;;;;;5052192;28;20449;-73
2023/03/21 13:34:21;;;;;;;61.67;4.80;;;21.00;99.90;;;;;;5052195;28;20444;-73
2023/03/21 13:36:49;;;;;;;62.90;5.37;;;;;;;;;;5052347;28;20472;-73
2023/03/21 13:39:18;;;;;;;60.50;4.73;;;;;;;;;;5051898;28;20480;-73
2023/03/21 13:41:47;;;;;;;59.60;4.33;;;;;;;;;;5051920;28;20948;-73
2023/03/21 13:44:20;;;;;;;60.87;4.73;;;;;;;;;;5052029;28;20526;-73
2023/03/21 13:46:53;;;;;;;60.37;4.40;;;;;;;;;;5051805;28;20563;-73
2023/03/21 13:49:29;;;;;;;60.67;4.37;;;21.10;99.90;;;;;;5051489;28;20493;-73
2023/03/21 13:51:58;;;;;;;60.27;4.87;;;20.90;99.90;;;;;;5052006;28;20447;-73
2023/03/21 13:54:44;;;;;;;58.87;4.40;;;;;;;;;;5052183;28;20444;-73
2023/03/21 13:57:21;;;;;;;59.00;4.70;;;;;;;;;;5051818;28;20845;-73
2023/03/21 13:59:48;;;;;;;59.67;4.47;;;20.60;99.90;;;;;;5051676;28;20445;-73
2023/03/21 14:02:27;;;;;;;59.70;4.33;;;20.50;99.90;;;;;;5052007;28;20452;-73
2023/03/21 14:05:00;;;;;;;61.80;4.20;;;20.60;99.90;;;;;;5051825;28;20490;-73
2023/03/21 14:07:30;;;;;;;61.07;5.13;;;20.50;99.90;;;;;;5051715;28;21039;-73
2023/03/21 14:10:00;;;;;;;61.67;5.10;;;20.40;99.90;;;;;;5051309;28;20452;-73